sensor_id;sensor_type;location;lat;lon;timestamp;pressure;altitude;pressure_sealevel;temperature;humidity
49377;BME280;35253;34.688;33.040;2022-09-09T00:00:41;100634.09;;;27.78;58.38
49377;BME280;35253;34.688;33.040;2022-09-09T00:05:44;100628.69;;;27.91;57.35
49377;BME280;35253;34.688;33.040;2022-09-09T00:08:25;100634.94;;;27.78;57.58
49377;BME280;35253;34.688;33.040;2022-09-09T00:10:56;100635.81;;;27.79;57.96
49377;BME280;35253;34.688;33.040;2022-09-09T00:13:34;100624.84;;;27.79;58.36
49377;BME280;35253;34.688;33.040;2022-09-09T00:16:04;100635.38;;;27.82;58.10
49377;BME280;35253;34.688;33.040;2022-09-09T00:21:05;100627.75;;;27.71;59.04
49377;BME280;35253;34.688;33.040;2022-09-09T00:23:37;100632.56;;;27.69;59.63
49377;BME280;35253;34.688;33.040;2022-09-09T00:28:45;100636.78;;;27.65;57.84
49377;BME280;35253;34.688;33.040;2022-09-09T00:31:28;100635.72;;;27.66;57.46
49377;BME280;35253;34.688;33.040;2022-09-09T00:33:54;100633.25;;;27.71;56.24
49377;BME280;35253;34.688;33.040;2022-09-09T00:36:24;100628.47;;;27.52;57.20
49377;BME280;35253;34.688;33.040;2022-09-09T00:38:52;100634.44;;;27.62;56.07
49377;BME280;35253;34.688;33.040;2022-09-09T00:49:38;100632.75;;;27.61;54.65
49377;BME280;35253;34.688;33.040;2022-09-09T00:52:26;100638.22;;;27.61;54.50
49377;BME280;35253;34.688;33.040;2022-09-09T00:57:29;100636.09;;;27.56;54.48
49377;BME280;35253;34.688;33.040;2022-09-09T01:00:14;100637.38;;;27.60;54.57
49377;BME280;35253;34.688;33.040;2022-09-09T01:02:46;100629.78;;;27.56;54.59
49377;BME280;35253;34.688;33.040;2022-09-09T01:05:20;100633.47;;;27.42;54.44
49377;BME280;35253;34.688;33.040;2022-09-09T01:07:47;100628.72;;;27.57;54.54
49377;BME280;35253;34.688;33.040;2022-09-09T01:10:26;100633.59;;;27.55;55.32
49377;BME280;35253;34.688;33.040;2022-09-09T01:12:54;100630.25;;;27.66;55.01
49377;BME280;35253;34.688;33.040;2022-09-09T01:15:25;100630.19;;;27.53;55.02
49377;BME280;35253;34.688;33.040;2022-09-09T01:18:15;100628.47;;;27.52;54.77
49377;BME280;35253;34.688;33.040;2022-09-09T01:20:45;100626.03;;;27.63;55.60
49377;BME280;35253;34.688;33.040;2022-09-09T01:28:10;100636.94;;;27.57;54.71
49377;BME280;35253;34.688;33.040;2022-09-09T01:30:39;100640.50;;;27.51;55.45
49377;BME280;35253;34.688;33.040;2022-09-09T01:33:05;100640.72;;;27.56;56.38
49377;BME280;35253;34.688;33.040;2022-09-09T01:38:02;100648.38;;;27.67;58.83
49377;BME280;35253;34.688;33.040;2022-09-09T01:40:27;100648.38;;;27.67;59.96
49377;BME280;35253;34.688;33.040;2022-09-09T01:42:53;100642.91;;;27.67;59.95
49377;BME280;35253;34.688;33.040;2022-09-09T01:45:19;100645.28;;;27.76;56.17
49377;BME280;35253;34.688;33.040;2022-09-09T01:47:45;100640.59;;;27.70;55.17
49377;BME280;35253;34.688;33.040;2022-09-09T01:50:11;100643.09;;;27.65;54.59
49377;BME280;35253;34.688;33.040;2022-09-09T01:52:39;100646.25;;;27.62;55.88
49377;BME280;35253;34.688;33.040;2022-09-09T01:55:05;100648.16;;;27.62;55.37
49377;BME280;35253;34.688;33.040;2022-09-09T01:57:33;100650.75;;;27.42;56.25
49377;BME280;35253;34.688;33.040;2022-09-09T02:00:06;100646.09;;;27.43;57.74
49377;BME280;35253;34.688;33.040;2022-09-09T02:02:38;100658.03;;;27.28;56.75
49377;BME280;35253;34.688;33.040;2022-09-09T02:05:18;100650.06;;;27.33;57.80
49377;BME280;35253;34.688;33.040;2022-09-09T02:07:47;100655.72;;;27.32;57.36
49377;BME280;35253;34.688;33.040;2022-09-09T02:12:49;100650.84;;;27.27;54.87
49377;BME280;35253;34.688;33.040;2022-09-09T02:15:18;100650.84;;;27.27;53.07
49377;BME280;35253;34.688;33.040;2022-09-09T02:17:47;100645.38;;;27.27;52.48
49377;BME280;35253;34.688;33.040;2022-09-09T02:20:15;100643.47;;;27.28;52.03
49377;BME280;35253;34.688;33.040;2022-09-09T02:22:43;100655.66;;;27.25;52.30
49377;BME280;35253;34.688;33.040;2022-09-09T02:25:10;100654.59;;;27.20;52.72
49377;BME280;35253;34.688;33.040;2022-09-09T02:27:38;100646.50;;;27.12;52.79
49377;BME280;35253;34.688;33.040;2022-09-09T02:30:04;100652.19;;;27.10;53.17
49377;BME280;35253;34.688;33.040;2022-09-09T02:32:30;100655.63;;;27.19;55.34
49377;BME280;35253;34.688;33.040;2022-09-09T02:35:02;100659.00;;;27.21;55.06
49377;BME280;35253;34.688;33.040;2022-09-09T02:37:30;100663.66;;;27.20;55.85
49377;BME280;35253;34.688;33.040;2022-09-09T02:39:58;100664.03;;;27.17;54.40
49377;BME280;35253;34.688;33.040;2022-09-09T02:42:23;100660.66;;;27.15;55.20
49377;BME280;35253;34.688;33.040;2022-09-09T02:44:49;100652.22;;;27.17;55.91
49377;BME280;35253;34.688;33.040;2022-09-09T02:47:21;100663.78;;;27.12;54.89
49377;BME280;35253;34.688;33.040;2022-09-09T02:50:11;100653.88;;;27.11;54.95
49377;BME280;35253;34.688;33.040;2022-09-09T02:55:08;100659.38;;;27.11;54.55
49377;BME280;35253;34.688;33.040;2022-09-09T02:57:37;100663.28;;;27.02;55.00
49377;BME280;35253;34.688;33.040;2022-09-09T03:00:04;100659.97;;;27.07;55.22
49377;BME280;35253;34.688;33.040;2022-09-09T03:02:30;100668.09;;;26.79;56.57
49377;BME280;35253;34.688;33.040;2022-09-09T03:04:55;100671.09;;;26.84;55.86
49377;BME280;35253;34.688;33.040;2022-09-09T03:07:21;100662.94;;;26.90;55.55
49377;BME280;35253;34.688;33.040;2022-09-09T03:09:46;100667.38;;;26.92;56.39
49377;BME280;35253;34.688;33.040;2022-09-09T03:12:12;100668.19;;;27.13;55.72
49377;BME280;35253;34.688;33.040;2022-09-09T03:14:38;100670.69;;;27.08;55.71
49377;BME280;35253;34.688;33.040;2022-09-09T03:17:04;100671.50;;;27.02;54.29
49377;BME280;35253;34.688;33.040;2022-09-09T03:19:30;100672.94;;;26.98;54.93
49377;BME280;35253;34.688;33.040;2022-09-09T03:21:55;100683.88;;;26.98;54.54
49377;BME280;35253;34.688;33.040;2022-09-09T03:24:21;100672.78;;;27.06;54.21
49377;BME280;35253;34.688;33.040;2022-09-09T03:26:47;100676.03;;;26.95;54.74
49377;BME280;35253;34.688;33.040;2022-09-09T03:29:13;100679.72;;;27.02;55.04
49377;BME280;35253;34.688;33.040;2022-09-09T03:31:40;100685.38;;;27.01;55.49
49377;BME280;35253;34.688;33.040;2022-09-09T03:34:05;100679.59;;;26.89;56.35
49377;BME280;35253;34.688;33.040;2022-09-09T03:36:31;100689.88;;;26.87;56.93
49377;BME280;35253;34.688;33.040;2022-09-09T03:38:56;100692.47;;;26.95;58.58
49377;BME280;35253;34.688;33.040;2022-09-09T03:41:23;100689.31;;;26.77;59.43
49377;BME280;35253;34.688;33.040;2022-09-09T03:43:52;100690.09;;;26.71;61.11
49377;BME280;35253;34.688;33.040;2022-09-09T03:46:18;100693.09;;;26.76;62.03
49377;BME280;35253;34.688;33.040;2022-09-09T03:48:43;100694.41;;;26.80;61.93
49377;BME280;35253;34.688;33.040;2022-09-09T03:51:09;100691.41;;;26.75;63.73
49377;BME280;35253;34.688;33.040;2022-09-09T03:53:35;100694.31;;;26.88;63.05
49377;BME280;35253;34.688;33.040;2022-09-09T03:56:03;100696.75;;;27.04;61.61
49377;BME280;35253;34.688;33.040;2022-09-09T03:58:32;100703.38;;;26.88;63.04
49377;BME280;35253;34.688;33.040;2022-09-09T04:01:18;100707.06;;;27.02;62.88
49377;BME280;35253;34.688;33.040;2022-09-09T04:03:43;100704.72;;;27.20;62.77
49377;BME280;35253;34.688;33.040;2022-09-09T04:06:10;100709.66;;;27.10;61.70
49377;BME280;35253;34.688;33.040;2022-09-09T04:08:37;100713.41;;;27.30;61.26
49377;BME280;35253;34.688;33.040;2022-09-09T04:11:04;100713.78;;;27.49;60.08
49377;BME280;35253;34.688;33.040;2022-09-09T04:13:32;100716.63;;;27.62;59.62
49377;BME280;35253;34.688;33.040;2022-09-09T04:15:58;100717.56;;;27.75;60.36
49377;BME280;35253;34.688;33.040;2022-09-09T04:18:24;100718.91;;;27.86;59.53
49377;BME280;35253;34.688;33.040;2022-09-09T04:20:51;100717.81;;;27.53;60.32
49377;BME280;35253;34.688;33.040;2022-09-09T04:23:17;100726.69;;;27.55;60.74
49377;BME280;35253;34.688;33.040;2022-09-09T04:25:46;100731.53;;;27.87;60.02
49377;BME280;35253;34.688;33.040;2022-09-09T04:28:15;100731.31;;;28.16;60.06
49377;BME280;35253;34.688;33.040;2022-09-09T04:30:42;100728.94;;;28.48;59.73
49377;BME280;35253;34.688;33.040;2022-09-09T04:33:07;100729.31;;;28.45;56.69
49377;BME280;35253;34.688;33.040;2022-09-09T04:35:33;100729.81;;;28.68;57.41
49377;BME280;35253;34.688;33.040;2022-09-09T04:37:59;100727.75;;;28.83;58.30
49377;BME280;35253;34.688;33.040;2022-09-09T04:40:24;100730.34;;;29.04;58.30
49377;BME280;35253;34.688;33.040;2022-09-09T04:42:50;100738.38;;;29.19;57.83
49377;BME280;35253;34.688;33.040;2022-09-09T04:45:16;100735.00;;;29.24;57.42
49377;BME280;35253;34.688;33.040;2022-09-09T04:47:41;100735.06;;;29.30;57.53
49377;BME280;35253;34.688;33.040;2022-09-09T04:50:07;100737.56;;;29.51;57.22
49377;BME280;35253;34.688;33.040;2022-09-09T04:52:36;100739.66;;;29.69;57.18
49377;BME280;35253;34.688;33.040;2022-09-09T04:55:02;100739.22;;;29.98;55.63
49377;BME280;35253;34.688;33.040;2022-09-09T04:57:27;100740.63;;;30.21;56.12
49377;BME280;35253;34.688;33.040;2022-09-09T04:59:54;100751.31;;;30.42;56.29
49377;BME280;35253;34.688;33.040;2022-09-09T05:02:19;100752.13;;;30.62;55.97
49377;BME280;35253;34.688;33.040;2022-09-09T05:04:44;100748.06;;;30.71;54.44
49377;BME280;35253;34.688;33.040;2022-09-09T05:07:10;100745.63;;;30.88;55.81
49377;BME280;35253;34.688;33.040;2022-09-09T05:09:35;100750.41;;;31.06;57.46
49377;BME280;35253;34.688;33.040;2022-09-09T05:12:01;100749.25;;;31.20;58.19
49377;BME280;35253;34.688;33.040;2022-09-09T05:14:28;100753.00;;;31.25;60.57
49377;BME280;35253;34.688;33.040;2022-09-09T05:16:54;100754.66;;;31.33;63.84
49377;BME280;35253;34.688;33.040;2022-09-09T05:19:20;100758.22;;;31.33;69.24
49377;BME280;35253;34.688;33.040;2022-09-09T05:21:46;100757.84;;;31.30;76.58
49377;BME280;35253;34.688;33.040;2022-09-09T05:24:11;100765.25;;;31.29;84.91
49377;BME280;35253;34.688;33.040;2022-09-09T05:26:37;100753.16;;;31.06;92.61
49377;BME280;35253;34.688;33.040;2022-09-09T05:29:02;100756.56;;;30.95;97.67
49377;BME280;35253;34.688;33.040;2022-09-09T05:31:29;100757.75;;;31.12;100.00
49377;BME280;35253;34.688;33.040;2022-09-09T05:33:55;100761.03;;;30.96;100.00
49377;BME280;35253;34.688;33.040;2022-09-09T05:36:21;100764.78;;;30.70;100.00
49377;BME280;35253;34.688;33.040;2022-09-09T05:38:47;100760.03;;;30.83;100.00
49377;BME280;35253;34.688;33.040;2022-09-09T05:41:13;100755.16;;;30.85;100.00
49377;BME280;35253;34.688;33.040;2022-09-09T05:43:40;100755.22;;;30.72;100.00
49377;BME280;35253;34.688;33.040;2022-09-09T05:46:08;100752.91;;;30.69;100.00
49377;BME280;35253;34.688;33.040;2022-09-09T05:48:35;100755.69;;;30.69;100.00
49377;BME280;35253;34.688;33.040;2022-09-09T05:51:01;100747.69;;;30.61;100.00
49377;BME280;35253;34.688;33.040;2022-09-09T05:53:27;100758.03;;;30.59;100.00
49377;BME280;35253;34.688;33.040;2022-09-09T05:56:00;100747.50;;;30.56;100.00
49377;BME280;35253;34.688;33.040;2022-09-09T05:58:28;100764.00;;;30.56;100.00
49377;BME280;35253;34.688;33.040;2022-09-09T06:01:00;100755.56;;;30.51;100.00
49377;BME280;35253;34.688;33.040;2022-09-09T06:03:26;100757.25;;;30.52;100.00
49377;BME280;35253;34.688;33.040;2022-09-09T06:06:01;100757.88;;;30.41;100.00
49377;BME280;35253;34.688;33.040;2022-09-09T06:08:27;100753.03;;;30.43;100.00
49377;BME280;35253;34.688;33.040;2022-09-09T06:10:52;100756.44;;;30.45;100.00
49377;BME280;35253;34.688;33.040;2022-09-09T06:13:18;100753.47;;;30.40;100.00
49377;BME280;35253;34.688;33.040;2022-09-09T06:15:50;100752.63;;;30.33;100.00
49377;BME280;35253;34.688;33.040;2022-09-09T06:18:17;100758.78;;;30.35;100.00
49377;BME280;35253;34.688;33.040;2022-09-09T06:20:53;100755.63;;;30.25;100.00
49377;BME280;35253;34.688;33.040;2022-09-09T06:23:21;100761.97;;;30.25;100.00
49377;BME280;35253;34.688;33.040;2022-09-09T06:25:46;100757.53;;;30.24;100.00
49377;BME280;35253;34.688;33.040;2022-09-09T06:28:12;100763.66;;;30.26;100.00
49377;BME280;35253;34.688;33.040;2022-09-09T06:30:38;100766.03;;;30.23;100.00
49377;BME280;35253;34.688;33.040;2022-09-09T06:33:05;100770.66;;;30.22;100.00
49377;BME280;35253;34.688;33.040;2022-09-09T06:35:30;100775.94;;;30.30;100.00
49377;BME280;35253;34.688;33.040;2022-09-09T06:37:56;100775.88;;;30.37;100.00
49377;BME280;35253;34.688;33.040;2022-09-09T06:40:24;100773.78;;;30.39;100.00
49377;BME280;35253;34.688;33.040;2022-09-09T06:42:49;100773.34;;;30.42;100.00
49377;BME280;35253;34.688;33.040;2022-09-09T06:45:15;100774.84;;;30.45;100.00
49377;BME280;35253;34.688;33.040;2022-09-09T06:47:40;100772.50;;;30.48;100.00
49377;BME280;35253;34.688;33.040;2022-09-09T06:50:06;100780.31;;;30.51;100.00
49377;BME280;35253;34.688;33.040;2022-09-09T06:52:33;100779.25;;;30.52;100.00
49377;BME280;35253;34.688;33.040;2022-09-09T06:54:58;100777.31;;;30.59;100.00
49377;BME280;35253;34.688;33.040;2022-09-09T06:57:24;100785.16;;;30.62;100.00
49377;BME280;35253;34.688;33.040;2022-09-09T06:59:49;100784.50;;;30.67;100.00
49377;BME280;35253;34.688;33.040;2022-09-09T07:02:15;100774.16;;;30.62;100.00
49377;BME280;35253;34.688;33.040;2022-09-09T07:04:41;100779.88;;;30.54;100.00
49377;BME280;35253;34.688;33.040;2022-09-09T07:07:06;100785.22;;;30.49;100.00
49377;BME280;35253;34.688;33.040;2022-09-09T07:09:33;100782.41;;;30.62;100.00
49377;BME280;35253;34.688;33.040;2022-09-09T07:11:59;100788.31;;;30.59;100.00
49377;BME280;35253;34.688;33.040;2022-09-09T07:14:24;100787.91;;;30.62;100.00
49377;BME280;35253;34.688;33.040;2022-09-09T07:16:50;100787.47;;;30.65;100.00
49377;BME280;35253;34.688;33.040;2022-09-09T07:19:15;100786.22;;;30.61;100.00
49377;BME280;35253;34.688;33.040;2022-09-09T07:21:41;100788.31;;;30.59;100.00
49377;BME280;35253;34.688;33.040;2022-09-09T07:24:07;100786.81;;;30.63;100.00
49377;BME280;35253;34.688;33.040;2022-09-09T07:26:35;100791.06;;;30.59;100.00
49377;BME280;35253;34.688;33.040;2022-09-09T07:29:01;100792.38;;;30.57;100.00
49377;BME280;35253;34.688;33.040;2022-09-09T07:31:27;100789.41;;;30.58;100.00
49377;BME280;35253;34.688;33.040;2022-09-09T07:33:53;100800.84;;;30.55;100.00
49377;BME280;35253;34.688;33.040;2022-09-09T07:36:23;100801.03;;;30.60;100.00
49377;BME280;35253;34.688;33.040;2022-09-09T07:38:51;100802.72;;;30.55;100.00
49377;BME280;35253;34.688;33.040;2022-09-09T07:41:23;100802.72;;;30.55;100.00
49377;BME280;35253;34.688;33.040;2022-09-09T07:43:49;100794.47;;;30.55;100.00
49377;BME280;35253;34.688;33.040;2022-09-09T07:46:16;100801.88;;;30.54;100.00
49377;BME280;35253;34.688;33.040;2022-09-09T07:48:45;100796.16;;;30.62;100.00
49377;BME280;35253;34.688;33.040;2022-09-09T07:51:14;100797.47;;;30.53;100.00
49377;BME280;35253;34.688;33.040;2022-09-09T07:53:44;100804.22;;;30.57;100.00
49377;BME280;35253;34.688;33.040;2022-09-09T07:56:11;100798.09;;;30.55;100.00
49377;BME280;35253;34.688;33.040;2022-09-09T07:58:37;100797.03;;;30.56;100.00
49377;BME280;35253;34.688;33.040;2022-09-09T08:01:16;100796.16;;;30.62;100.00
49377;BME280;35253;34.688;33.040;2022-09-09T08:03:46;100796.50;;;30.72;100.00
49377;BME280;35253;34.688;33.040;2022-09-09T08:06:12;100784.19;;;30.81;100.00
49377;BME280;35253;34.688;33.040;2022-09-09T08:08:39;100788.81;;;30.87;100.00
49377;BME280;35253;34.688;33.040;2022-09-09T08:11:15;100787.94;;;30.94;100.00
49377;BME280;35253;34.688;33.040;2022-09-09T08:13:41;100787.13;;;30.86;100.00
49377;BME280;35253;34.688;33.040;2022-09-09T08:16:08;100784.97;;;30.95;100.00
49377;BME280;35253;34.688;33.040;2022-09-09T08:18:34;100784.75;;;30.97;100.00
49377;BME280;35253;34.688;33.040;2022-09-09T08:21:06;100788.97;;;31.06;100.00
49377;BME280;35253;34.688;33.040;2022-09-09T08:23:32;100785.75;;;31.09;100.00
49377;BME280;35253;34.688;33.040;2022-09-09T08:26:20;100780.72;;;31.06;100.00
49377;BME280;35253;34.688;33.040;2022-09-09T08:28:48;100774.53;;;31.10;100.00
49377;BME280;35253;34.688;33.040;2022-09-09T08:31:16;100786.53;;;31.16;100.00
49377;BME280;35253;34.688;33.040;2022-09-09T08:33:42;100783.53;;;31.24;100.00
49377;BME280;35253;34.688;33.040;2022-09-09T08:36:11;100783.75;;;31.22;100.00
49377;BME280;35253;34.688;33.040;2022-09-09T08:38:37;100787.81;;;31.20;100.00
49377;BME280;35253;34.688;33.040;2022-09-09T08:43:34;100780.34;;;31.27;100.00
49377;BME280;35253;34.688;33.040;2022-09-09T08:46:06;100770.94;;;31.35;100.00
49377;BME280;35253;34.688;33.040;2022-09-09T08:51:01;100781.75;;;31.36;100.00
49377;BME280;35253;34.688;33.040;2022-09-09T08:53:28;100778.00;;;30.48;100.00
49377;BME280;35253;34.688;33.040;2022-09-09T08:56:01;100780.53;;;30.43;100.00
49377;BME280;35253;34.688;33.040;2022-09-09T08:58:32;100779.06;;;30.92;100.00
49377;BME280;35253;34.688;33.040;2022-09-09T09:01:19;100779.75;;;31.18;100.00
49377;BME280;35253;34.688;33.040;2022-09-09T09:06:26;100773.56;;;30.92;100.00
49377;BME280;35253;34.688;33.040;2022-09-09T09:11:46;100781.25;;;31.46;100.00
49377;BME280;35253;34.688;33.040;2022-09-09T09:19:08;100778.56;;;31.08;100.00
49377;BME280;35253;34.688;33.040;2022-09-09T09:21:45;100778.63;;;31.57;100.00
49377;BME280;35253;34.688;33.040;2022-09-09T09:24:18;100772.50;;;31.80;100.00
49377;BME280;35253;34.688;33.040;2022-09-09T09:26:44;100775.81;;;31.89;100.00
49377;BME280;35253;34.688;33.040;2022-09-09T09:29:11;100774.72;;;31.90;100.00
49377;BME280;35253;34.688;33.040;2022-09-09T09:31:37;100768.44;;;32.01;100.00
49377;BME280;35253;34.688;33.040;2022-09-09T09:34:03;100764.53;;;32.08;100.00
49377;BME280;35253;34.688;33.040;2022-09-09T09:36:39;100773.06;;;32.07;100.00
49377;BME280;35253;34.688;33.040;2022-09-09T09:39:06;100773.00;;;32.13;100.00
49377;BME280;35253;34.688;33.040;2022-09-09T09:41:32;100772.09;;;32.19;100.00
49377;BME280;35253;34.688;33.040;2022-09-09T09:43:59;100771.47;;;32.36;100.00
49377;BME280;35253;34.688;33.040;2022-09-09T09:46:25;100766.31;;;32.39;100.00
49377;BME280;35253;34.688;33.040;2022-09-09T09:49:02;100768.78;;;32.47;100.00
49377;BME280;35253;34.688;33.040;2022-09-09T09:51:28;100770.94;;;32.63;100.00
49377;BME280;35253;34.688;33.040;2022-09-09T09:54:02;100776.75;;;32.74;100.00
49377;BME280;35253;34.688;33.040;2022-09-09T09:56:30;100767.06;;;32.83;100.00
49377;BME280;35253;34.688;33.040;2022-09-09T09:58:57;100773.34;;;32.90;100.00
49377;BME280;35253;34.688;33.040;2022-09-09T10:01:25;100770.59;;;32.90;100.00
49377;BME280;35253;34.688;33.040;2022-09-09T10:03:52;100768.34;;;33.10;100.00
49377;BME280;35253;34.688;33.040;2022-09-09T10:06:29;100770.34;;;33.21;100.00
49377;BME280;35253;34.688;33.040;2022-09-09T10:08:54;100758.59;;;33.37;100.00
49377;BME280;35253;34.688;33.040;2022-09-09T10:11:26;100761.28;;;33.56;100.00
49377;BME280;35253;34.688;33.040;2022-09-09T10:16:32;100762.28;;;33.73;100.00
49377;BME280;35253;34.688;33.040;2022-09-09T10:19:04;100759.63;;;33.78;100.00
49377;BME280;35253;34.688;33.040;2022-09-09T10:24:17;100747.84;;;34.17;100.00
49377;BME280;35253;34.688;33.040;2022-09-09T10:26:51;100743.78;;;34.36;100.00
49377;BME280;35253;34.688;33.040;2022-09-09T10:29:39;100744.97;;;34.52;100.00
49377;BME280;35253;34.688;33.040;2022-09-09T10:34:49;100734.47;;;33.91;100.00
49377;BME280;35253;34.688;33.040;2022-09-09T10:42:34;100736.50;;;34.30;100.00
49377;BME280;35253;34.688;33.040;2022-09-09T10:45:10;100732.72;;;34.76;100.00
49377;BME280;35253;34.688;33.040;2022-09-09T10:47:53;100730.56;;;34.38;100.00
49377;BME280;35253;34.688;33.040;2022-09-09T10:50:37;100727.88;;;35.28;100.00
49377;BME280;35253;34.688;33.040;2022-09-09T10:53:18;100730.22;;;35.70;100.00
49377;BME280;35253;34.688;33.040;2022-09-09T10:55:52;100716.00;;;36.22;99.84
49377;BME280;35253;34.688;33.040;2022-09-09T10:58:39;100719.28;;;36.62;97.18
49377;BME280;35253;34.688;33.040;2022-09-09T11:01:15;100716.94;;;36.76;95.26
49377;BME280;35253;34.688;33.040;2022-09-09T11:03:43;100712.72;;;37.00;92.83
49377;BME280;35253;34.688;33.040;2022-09-09T11:06:14;100711.06;;;37.31;91.70
49377;BME280;35253;34.688;33.040;2022-09-09T11:08:42;100716.53;;;37.53;89.19
49377;BME280;35253;34.688;33.040;2022-09-09T11:18:44;100704.97;;;38.13;83.53
49377;BME280;35253;34.688;33.040;2022-09-09T11:21:16;100696.66;;;37.34;91.09
49377;BME280;35253;34.688;33.040;2022-09-09T11:23:45;100705.03;;;37.76;89.55
49377;BME280;35253;34.688;33.040;2022-09-09T11:26:16;100698.75;;;37.96;91.33
49377;BME280;35253;34.688;33.040;2022-09-09T11:31:19;100680.97;;;36.64;100.00
49377;BME280;35253;34.688;33.040;2022-09-09T11:34:04;100684.31;;;36.93;100.00
49377;BME280;35253;34.688;33.040;2022-09-09T11:41:32;100674.00;;;35.96;90.54
49377;BME280;35253;34.688;33.040;2022-09-09T11:43:58;100667.69;;;34.79;87.35
49377;BME280;35253;34.688;33.040;2022-09-09T11:46:31;100674.28;;;34.21;86.95
49377;BME280;35253;34.688;33.040;2022-09-09T11:48:59;100670.44;;;34.51;81.08
49377;BME280;35253;34.688;33.040;2022-09-09T11:51:29;100668.44;;;34.74;77.86
49377;BME280;35253;34.688;33.040;2022-09-09T11:53:56;100665.97;;;34.50;73.57
49377;BME280;35253;34.688;33.040;2022-09-09T12:01:43;100660.22;;;34.11;69.50
49377;BME280;35253;34.688;33.040;2022-09-09T12:04:11;100657.41;;;34.34;68.47
49377;BME280;35253;34.688;33.040;2022-09-09T12:06:42;100655.06;;;34.03;63.62
49377;BME280;35253;34.688;33.040;2022-09-09T12:11:49;100650.75;;;33.95;59.38
49377;BME280;35253;34.688;33.040;2022-09-09T12:14:22;100654.56;;;34.46;57.79
49377;BME280;35253;34.688;33.040;2022-09-09T12:16:48;100653.25;;;34.49;54.26
49377;BME280;35253;34.688;33.040;2022-09-09T12:19:16;100646.41;;;33.88;54.11
49377;BME280;35253;34.688;33.040;2022-09-09T12:24:17;100642.00;;;33.87;53.07
49377;BME280;35253;34.688;33.040;2022-09-09T12:29:37;100634.09;;;33.79;55.02
49377;BME280;35253;34.688;33.040;2022-09-09T12:32:06;100632.53;;;34.11;56.35
49377;BME280;35253;34.688;33.040;2022-09-09T12:37:05;100635.66;;;34.26;58.27
49377;BME280;35253;34.688;33.040;2022-09-09T12:39:33;100626.38;;;33.81;75.65
49377;BME280;35253;34.688;33.040;2022-09-09T12:41:59;100632.59;;;32.95;78.10
49377;BME280;35253;34.688;33.040;2022-09-09T12:44:25;100629.41;;;33.21;85.56
49377;BME280;35253;34.688;33.040;2022-09-09T12:46:53;100631.19;;;33.27;88.46
49377;BME280;35253;34.688;33.040;2022-09-09T12:49:29;100625.03;;;33.14;100.00
49377;BME280;35253;34.688;33.040;2022-09-09T12:52:12;100623.53;;;33.29;90.20
49377;BME280;35253;34.688;33.040;2022-09-09T12:54:42;100631.06;;;33.11;90.78
49377;BME280;35253;34.688;33.040;2022-09-09T12:57:11;100625.41;;;32.94;100.00
49377;BME280;35253;34.688;33.040;2022-09-09T12:59:38;100619.97;;;32.87;100.00
49377;BME280;35253;34.688;33.040;2022-09-09T13:04:42;100617.69;;;32.73;100.00
49377;BME280;35253;34.688;33.040;2022-09-09T13:07:07;100621.69;;;32.58;100.00
49377;BME280;35253;34.688;33.040;2022-09-09T13:09:36;100621.66;;;32.77;100.00
49377;BME280;35253;34.688;33.040;2022-09-09T13:12:01;100619.13;;;32.45;100.00
49377;BME280;35253;34.688;33.040;2022-09-09T13:14:29;100620.53;;;32.36;100.00
49377;BME280;35253;34.688;33.040;2022-09-09T13:17:01;100618.88;;;32.17;100.00
49377;BME280;35253;34.688;33.040;2022-09-09T13:19:32;100611.75;;;32.28;100.00
49377;BME280;35253;34.688;33.040;2022-09-09T13:21:59;100617.47;;;32.26;100.00
49377;BME280;35253;34.688;33.040;2022-09-09T13:24:32;100617.38;;;32.03;100.00
49377;BME280;35253;34.688;33.040;2022-09-09T13:26:59;100618.81;;;32.24;100.00
49377;BME280;35253;34.688;33.040;2022-09-09T13:29:27;100610.59;;;32.17;100.00
49377;BME280;35253;34.688;33.040;2022-09-09T13:31:53;100612.78;;;31.97;100.00
49377;BME280;35253;34.688;33.040;2022-09-09T13:36:52;100610.00;;;31.97;100.00
49377;BME280;35253;34.688;33.040;2022-09-09T13:39:19;100615.75;;;32.13;100.00
49377;BME280;35253;34.688;33.040;2022-09-09T13:41:44;100613.84;;;32.14;100.00
49377;BME280;35253;34.688;33.040;2022-09-09T13:44:30;100622.44;;;32.36;100.00
49377;BME280;35253;34.688;33.040;2022-09-09T13:47:00;100631.34;;;32.38;100.00
49377;BME280;35253;34.688;33.040;2022-09-09T13:49:27;100620.09;;;32.21;100.00
49377;BME280;35253;34.688;33.040;2022-09-09T13:52:02;100626.19;;;32.41;100.00
49377;BME280;35253;34.688;33.040;2022-09-09T13:54:28;100627.53;;;32.50;100.00
49377;BME280;35253;34.688;33.040;2022-09-09T13:56:56;100621.78;;;32.22;100.00
49377;BME280;35253;34.688;33.040;2022-09-09T13:59:21;100623.28;;;32.36;100.00
49377;BME280;35253;34.688;33.040;2022-09-09T14:01:47;100630.69;;;31.88;100.00
49377;BME280;35253;34.688;33.040;2022-09-09T14:04:12;100626.56;;;31.79;100.00
49377;BME280;35253;34.688;33.040;2022-09-09T14:06:38;100625.50;;;31.80;100.00
49377;BME280;35253;34.688;33.040;2022-09-09T14:09:07;100638.06;;;31.75;100.00
49377;BME280;35253;34.688;33.040;2022-09-09T14:11:34;100623.34;;;31.82;100.00
49377;BME280;35253;34.688;33.040;2022-09-09T14:14:00;100623.66;;;31.92;100.00
49377;BME280;35253;34.688;33.040;2022-09-09T14:16:26;100617.91;;;31.93;100.00
49377;BME280;35253;34.688;33.040;2022-09-09T14:18:53;100622.81;;;31.91;100.00